sensor_id;sensor_type;location;lat;lon;timestamp;P1;durP1;ratioP1;P2;durP2;ratioP2
12320;SDS011;6225;52.720;8.276;2022-08-19T12:47:47;108.43;;;16.13;;
12320;SDS011;6225;52.720;8.276;2022-08-19T12:50:31;65.78;;;11.05;;
12320;SDS011;6225;52.720;8.276;2022-08-19T12:53:15;6.47;;;3.38;;
12320;SDS011;6225;52.720;8.276;2022-08-19T12:56:00;13.02;;;3.97;;
12320;SDS011;6225;52.720;8.276;2022-08-19T12:58:44;9.60;;;3.58;;
12320;SDS011;6225;52.720;8.276;2022-08-19T13:01:29;18.95;;;4.53;;
12320;SDS011;6225;52.720;8.276;2022-08-19T13:04:16;9.83;;;3.00;;
12320;SDS011;6225;52.720;8.276;2022-08-19T13:07:00;4.32;;;2.58;;
12320;SDS011;6225;52.720;8.276;2022-08-19T13:09:44;5.18;;;2.85;;
12320;SDS011;6225;52.720;8.276;2022-08-19T13:12:28;4.10;;;2.40;;
12320;SDS011;6225;52.720;8.276;2022-08-19T13:15:13;2.95;;;2.40;;
12320;SDS011;6225;52.720;8.276;2022-08-19T13:17:58;5.43;;;2.78;;
12320;SDS011;6225;52.720;8.276;2022-08-19T13:20:42;3.67;;;2.80;;
12320;SDS011;6225;52.720;8.276;2022-08-19T13:23:27;4.07;;;2.50;;
12320;SDS011;6225;52.720;8.276;2022-08-19T13:26:11;3.38;;;2.50;;
12320;SDS011;6225;52.720;8.276;2022-08-19T13:28:56;4.40;;;2.60;;
12320;SDS011;6225;52.720;8.276;2022-08-19T13:32:00;2.70;;;2.45;;
12320;SDS011;6225;52.720;8.276;2022-08-19T13:35:03;3.57;;;2.50;;
12320;SDS011;6225;52.720;8.276;2022-08-19T13:37:48;4.47;;;2.40;;
12320;SDS011;6225;52.720;8.276;2022-08-19T13:40:32;10.48;;;2.90;;
12320;SDS011;6225;52.720;8.276;2022-08-19T13:43:18;3.28;;;2.33;;
12320;SDS011;6225;52.720;8.276;2022-08-19T13:46:08;4.82;;;2.20;;
12320;SDS011;6225;52.720;8.276;2022-08-19T13:48:53;3.25;;;2.22;;
12320;SDS011;6225;52.720;8.276;2022-08-19T13:51:38;3.00;;;2.58;;
12320;SDS011;6225;52.720;8.276;2022-08-19T13:54:23;4.20;;;2.45;;
12320;SDS011;6225;52.720;8.276;2022-08-19T13:57:08;4.35;;;2.40;;
12320;SDS011;6225;52.720;8.276;2022-08-19T13:59:52;2.40;;;2.15;;
12320;SDS011;6225;52.720;8.276;2022-08-19T14:02:37;4.20;;;2.33;;
12320;SDS011;6225;52.720;8.276;2022-08-19T14:05:22;12.00;;;2.47;;
12320;SDS011;6225;52.720;8.276;2022-08-19T14:08:08;3.28;;;2.20;;
12320;SDS011;6225;52.720;8.276;2022-08-19T14:10:53;3.17;;;2.10;;
12320;SDS011;6225;52.720;8.276;2022-08-19T14:13:38;3.15;;;1.90;;
12320;SDS011;6225;52.720;8.276;2022-08-19T14:16:22;2.47;;;2.00;;
12320;SDS011;6225;52.720;8.276;2022-08-19T14:19:06;3.65;;;2.08;;
12320;SDS011;6225;52.720;8.276;2022-08-19T14:21:51;17.38;;;2.80;;
12320;SDS011;6225;52.720;8.276;2022-08-19T14:24:36;3.97;;;2.10;;
12320;SDS011;6225;52.720;8.276;2022-08-19T14:27:23;2.70;;;2.10;;
12320;SDS011;6225;52.720;8.276;2022-08-19T14:30:10;2.20;;;1.90;;
12320;SDS011;6225;52.720;8.276;2022-08-19T14:32:56;3.67;;;2.10;;
12320;SDS011;6225;52.720;8.276;2022-08-19T14:35:42;5.00;;;2.20;;
12320;SDS011;6225;52.720;8.276;2022-08-19T14:38:28;3.22;;;1.90;;
12320;SDS011;6225;52.720;8.276;2022-08-19T14:41:16;2.50;;;1.85;;
12320;SDS011;6225;52.720;8.276;2022-08-19T14:44:03;4.75;;;2.05;;
12320;SDS011;6225;52.720;8.276;2022-08-19T14:46:47;2.00;;;1.70;;
12320;SDS011;6225;52.720;8.276;2022-08-19T14:49:31;2.53;;;1.73;;
12320;SDS011;6225;52.720;8.276;2022-08-19T14:52:15;4.68;;;3.10;;
12320;SDS011;6225;52.720;8.276;2022-08-19T14:54:59;2.53;;;2.17;;
12320;SDS011;6225;52.720;8.276;2022-08-19T14:57:44;3.85;;;2.00;;
12320;SDS011;6225;52.720;8.276;2022-08-19T15:00:29;2.78;;;2.00;;
12320;SDS011;6225;52.720;8.276;2022-08-19T15:03:13;3.53;;;1.83;;
12320;SDS011;6225;52.720;8.276;2022-08-19T15:05:57;3.07;;;2.00;;
12320;SDS011;6225;52.720;8.276;2022-08-19T15:08:43;2.90;;;2.08;;
12320;SDS011;6225;52.720;8.276;2022-08-19T15:11:28;3.42;;;2.15;;
12320;SDS011;6225;52.720;8.276;2022-08-19T15:14:13;3.40;;;2.03;;
12320;SDS011;6225;52.720;8.276;2022-08-19T15:16:58;4.10;;;2.20;;
12320;SDS011;6225;52.720;8.276;2022-08-19T15:19:42;2.83;;;2.00;;
12320;SDS011;6225;52.720;8.276;2022-08-19T15:22:26;2.47;;;1.90;;
12320;SDS011;6225;52.720;8.276;2022-08-19T15:25:12;2.20;;;1.90;;
12320;SDS011;6225;52.720;8.276;2022-08-19T15:27:58;2.72;;;1.80;;
12320;SDS011;6225;52.720;8.276;2022-08-19T15:30:44;2.45;;;2.10;;
12320;SDS011;6225;52.720;8.276;2022-08-19T15:33:30;2.70;;;1.90;;
12320;SDS011;6225;52.720;8.276;2022-08-19T15:36:15;4.75;;;2.00;;
12320;SDS011;6225;52.720;8.276;2022-08-19T15:38:59;3.45;;;2.03;;
12320;SDS011;6225;52.720;8.276;2022-08-19T15:41:44;3.50;;;1.90;;
12320;SDS011;6225;52.720;8.276;2022-08-19T15:44:30;2.60;;;1.83;;
12320;SDS011;6225;52.720;8.276;2022-08-19T15:47:14;3.20;;;1.90;;
12320;SDS011;6225;52.720;8.276;2022-08-19T15:49:58;4.20;;;1.90;;
12320;SDS011;6225;52.720;8.276;2022-08-19T15:52:51;3.60;;;2.13;;
12320;SDS011;6225;52.720;8.276;2022-08-19T15:55:41;3.13;;;1.90;;
12320;SDS011;6225;52.720;8.276;2022-08-19T15:58:27;3.85;;;1.98;;
12320;SDS011;6225;52.720;8.276;2022-08-19T16:01:31;3.30;;;2.25;;
12320;SDS011;6225;52.720;8.276;2022-08-19T16:04:34;5.65;;;2.20;;
12320;SDS011;6225;52.720;8.276;2022-08-19T16:07:37;4.05;;;2.20;;
12320;SDS011;6225;52.720;8.276;2022-08-19T16:10:21;3.25;;;2.17;;
12320;SDS011;6225;52.720;8.276;2022-08-19T16:13:05;2.30;;;2.10;;
12320;SDS011;6225;52.720;8.276;2022-08-19T16:15:50;2.35;;;2.13;;
12320;SDS011;6225;52.720;8.276;2022-08-19T16:18:36;2.20;;;2.00;;
12320;SDS011;6225;52.720;8.276;2022-08-19T16:21:21;3.70;;;2.42;;
12320;SDS011;6225;52.720;8.276;2022-08-19T16:24:06;2.50;;;2.03;;
12320;SDS011;6225;52.720;8.276;2022-08-19T16:26:53;3.25;;;2.30;;
12320;SDS011;6225;52.720;8.276;2022-08-19T16:29:38;3.47;;;2.10;;
12320;SDS011;6225;52.720;8.276;2022-08-19T16:32:22;2.35;;;1.85;;
12320;SDS011;6225;52.720;8.276;2022-08-19T16:35:06;3.53;;;1.87;;
12320;SDS011;6225;52.720;8.276;2022-08-19T16:37:51;2.97;;;2.40;;
12320;SDS011;6225;52.720;8.276;2022-08-19T16:40:35;4.43;;;3.15;;
12320;SDS011;6225;52.720;8.276;2022-08-19T16:43:20;5.00;;;3.40;;
12320;SDS011;6225;52.720;8.276;2022-08-19T16:46:04;4.78;;;3.10;;
12320;SDS011;6225;52.720;8.276;2022-08-19T16:48:50;6.10;;;2.45;;
12320;SDS011;6225;52.720;8.276;2022-08-19T16:51:34;2.72;;;2.10;;
12320;SDS011;6225;52.720;8.276;2022-08-19T16:54:19;3.25;;;2.40;;
12320;SDS011;6225;52.720;8.276;2022-08-19T16:57:04;2.47;;;2.25;;
12320;SDS011;6225;52.720;8.276;2022-08-19T16:59:51;4.63;;;2.13;;
12320;SDS011;6225;52.720;8.276;2022-08-19T17:02:35;2.80;;;1.90;;
12320;SDS011;6225;52.720;8.276;2022-08-19T17:05:23;2.13;;;1.83;;
12320;SDS011;6225;52.720;8.276;2022-08-19T17:08:11;4.18;;;2.20;;
12320;SDS011;6225;52.720;8.276;2022-08-19T17:10:58;3.33;;;1.80;;
12320;SDS011;6225;52.720;8.276;2022-08-19T17:13:42;4.00;;;2.00;;
12320;SDS011;6225;52.720;8.276;2022-08-19T17:16:28;2.47;;;1.67;;
12320;SDS011;6225;52.720;8.276;2022-08-19T17:19:18;3.33;;;1.90;;
12320;SDS011;6225;52.720;8.276;2022-08-19T17:22:09;4.93;;;1.98;;
12320;SDS011;6225;52.720;8.276;2022-08-19T17:24:55;8.20;;;2.00;;
12320;SDS011;6225;52.720;8.276;2022-08-19T17:27:41;2.90;;;1.90;;
12320;SDS011;6225;52.720;8.276;2022-08-19T17:30:26;3.88;;;2.05;;
12320;SDS011;6225;52.720;8.276;2022-08-19T17:33:18;9.23;;;2.67;;
12320;SDS011;6225;52.720;8.276;2022-08-19T17:36:02;5.95;;;2.33;;
12320;SDS011;6225;52.720;8.276;2022-08-19T17:38:49;4.32;;;2.30;;
12320;SDS011;6225;52.720;8.276;2022-08-19T17:41:38;16.60;;;3.00;;
12320;SDS011;6225;52.720;8.276;2022-08-19T17:44:23;14.07;;;3.47;;
12320;SDS011;6225;52.720;8.276;2022-08-19T17:47:08;11.77;;;2.70;;
12320;SDS011;6225;52.720;8.276;2022-08-19T17:49:52;5.38;;;2.60;;
12320;SDS011;6225;52.720;8.276;2022-08-19T17:52:37;3.58;;;2.20;;
12320;SDS011;6225;52.720;8.276;2022-08-19T17:55:22;3.87;;;2.43;;
12320;SDS011;6225;52.720;8.276;2022-08-19T17:58:07;2.40;;;2.20;;
12320;SDS011;6225;52.720;8.276;2022-08-19T18:00:53;2.70;;;2.50;;
12320;SDS011;6225;52.720;8.276;2022-08-19T18:03:44;3.13;;;2.50;;
12320;SDS011;6225;52.720;8.276;2022-08-19T18:06:32;3.17;;;2.40;;
12320;SDS011;6225;52.720;8.276;2022-08-19T18:09:26;3.58;;;2.47;;
12320;SDS011;6225;52.720;8.276;2022-08-19T18:12:14;5.07;;;2.47;;
12320;SDS011;6225;52.720;8.276;2022-08-19T18:15:09;3.72;;;2.50;;
12320;SDS011;6225;52.720;8.276;2022-08-19T18:17:56;4.10;;;2.40;;
12320;SDS011;6225;52.720;8.276;2022-08-19T18:20:46;3.05;;;2.40;;
12320;SDS011;6225;52.720;8.276;2022-08-19T18:23:59;2.78;;;2.58;;
12320;SDS011;6225;52.720;8.276;2022-08-19T18:26:48;3.25;;;2.47;;
12320;SDS011;6225;52.720;8.276;2022-08-19T18:32:53;3.33;;;2.90;;
12320;SDS011;6225;52.720;8.276;2022-08-19T18:35:50;3.90;;;2.80;;
12320;SDS011;6225;52.720;8.276;2022-08-19T18:38:49;4.50;;;3.17;;
12320;SDS011;6225;52.720;8.276;2022-08-19T18:42:31;6.13;;;3.30;;
12320;SDS011;6225;52.720;8.276;2022-08-19T18:45:46;7.43;;;3.58;;
12320;SDS011;6225;52.720;8.276;2022-08-19T18:49:01;5.43;;;3.72;;
12320;SDS011;6225;52.720;8.276;2022-08-19T18:51:52;5.67;;;3.80;;
12320;SDS011;6225;52.720;8.276;2022-08-19T18:55:12;6.68;;;4.80;;
12320;SDS011;6225;52.720;8.276;2022-08-19T18:58:16;5.77;;;5.17;;
12320;SDS011;6225;52.720;8.276;2022-08-19T19:01:26;6.97;;;5.10;;
12320;SDS011;6225;52.720;8.276;2022-08-19T19:04:22;7.43;;;5.00;;
12320;SDS011;6225;52.720;8.276;2022-08-19T19:07:16;7.38;;;3.75;;
12320;SDS011;6225;52.720;8.276;2022-08-19T19:10:06;8.05;;;3.20;;
12320;SDS011;6225;52.720;8.276;2022-08-19T19:12:51;6.22;;;2.80;;
12320;SDS011;6225;52.720;8.276;2022-08-19T19:15:38;3.90;;;3.30;;
12320;SDS011;6225;52.720;8.276;2022-08-19T19:18:35;4.70;;;3.60;;
12320;SDS011;6225;52.720;8.276;2022-08-19T19:21:20;5.68;;;4.03;;
12320;SDS011;6225;52.720;8.276;2022-08-19T19:24:07;7.30;;;4.00;;
12320;SDS011;6225;52.720;8.276;2022-08-19T19:26:51;4.65;;;4.25;;
12320;SDS011;6225;52.720;8.276;2022-08-19T19:29:36;5.53;;;4.50;;
12320;SDS011;6225;52.720;8.276;2022-08-19T19:32:22;5.47;;;4.50;;
12320;SDS011;6225;52.720;8.276;2022-08-19T19:35:15;8.85;;;5.10;;
12320;SDS011;6225;52.720;8.276;2022-08-19T19:38:02;6.55;;;5.10;;
12320;SDS011;6225;52.720;8.276;2022-08-19T19:40:47;5.57;;;5.03;;
12320;SDS011;6225;52.720;8.276;2022-08-19T19:43:36;7.78;;;5.55;;
12320;SDS011;6225;52.720;8.276;2022-08-19T19:46:21;6.93;;;5.70;;
12320;SDS011;6225;52.720;8.276;2022-08-19T19:49:09;7.28;;;5.78;;
12320;SDS011;6225;52.720;8.276;2022-08-19T19:51:55;8.82;;;6.63;;
12320;SDS011;6225;52.720;8.276;2022-08-19T19:54:40;10.48;;;6.80;;
12320;SDS011;6225;52.720;8.276;2022-08-19T19:57:26;7.68;;;6.80;;
12320;SDS011;6225;52.720;8.276;2022-08-19T20:00:15;9.02;;;6.90;;
12320;SDS011;6225;52.720;8.276;2022-08-19T20:03:01;8.93;;;7.30;;
12320;SDS011;6225;52.720;8.276;2022-08-19T20:05:49;9.77;;;7.10;;
12320;SDS011;6225;52.720;8.276;2022-08-19T20:08:34;7.85;;;7.05;;
12320;SDS011;6225;52.720;8.276;2022-08-19T20:14:28;10.57;;;8.57;;
12320;SDS011;6225;52.720;8.276;2022-08-19T20:17:15;11.73;;;9.80;;
12320;SDS011;6225;52.720;8.276;2022-08-19T20:20:03;9.80;;;8.80;;
12320;SDS011;6225;52.720;8.276;2022-08-19T20:23:00;9.40;;;8.50;;
12320;SDS011;6225;52.720;8.276;2022-08-19T20:25:46;10.15;;;8.55;;
12320;SDS011;6225;52.720;8.276;2022-08-19T20:28:35;10.23;;;9.23;;
12320;SDS011;6225;52.720;8.276;2022-08-19T20:31:24;11.15;;;10.05;;
12320;SDS011;6225;52.720;8.276;2022-08-19T20:34:10;11.75;;;10.55;;
12320;SDS011;6225;52.720;8.276;2022-08-19T20:36:59;12.57;;;10.80;;
12320;SDS011;6225;52.720;8.276;2022-08-19T20:42:38;11.02;;;9.93;;
12320;SDS011;6225;52.720;8.276;2022-08-19T20:45:26;12.20;;;10.90;;
12320;SDS011;6225;52.720;8.276;2022-08-19T20:48:18;13.23;;;12.02;;
12320;SDS011;6225;52.720;8.276;2022-08-19T20:51:04;13.13;;;11.82;;
12320;SDS011;6225;52.720;8.276;2022-08-19T20:53:53;13.63;;;12.27;;
12320;SDS011;6225;52.720;8.276;2022-08-19T20:56:54;13.33;;;12.03;;
12320;SDS011;6225;52.720;8.276;2022-08-19T20:59:54;12.90;;;11.55;;
12320;SDS011;6225;52.720;8.276;2022-08-19T21:02:48;13.90;;;12.40;;
12320;SDS011;6225;52.720;8.276;2022-08-19T21:05:33;14.10;;;12.65;;
12320;SDS011;6225;52.720;8.276;2022-08-19T21:08:20;14.90;;;13.43;;
12320;SDS011;6225;52.720;8.276;2022-08-19T21:11:10;14.57;;;12.95;;
12320;SDS011;6225;52.720;8.276;2022-08-19T21:14:00;14.32;;;12.80;;
12320;SDS011;6225;52.720;8.276;2022-08-19T21:16:54;15.35;;;13.88;;
12320;SDS011;6225;52.720;8.276;2022-08-19T21:19:39;14.85;;;13.35;;
12320;SDS011;6225;52.720;8.276;2022-08-19T21:22:26;15.95;;;13.98;;
12320;SDS011;6225;52.720;8.276;2022-08-19T21:25:17;15.05;;;13.52;;
12320;SDS011;6225;52.720;8.276;2022-08-19T21:28:02;16.20;;;13.88;;
12320;SDS011;6225;52.720;8.276;2022-08-19T21:30:47;15.20;;;13.70;;
12320;SDS011;6225;52.720;8.276;2022-08-19T21:33:35;13.75;;;12.52;;
12320;SDS011;6225;52.720;8.276;2022-08-19T21:36:27;14.07;;;12.73;;
12320;SDS011;6225;52.720;8.276;2022-08-19T21:39:13;14.25;;;12.80;;
12320;SDS011;6225;52.720;8.276;2022-08-19T21:42:02;14.77;;;12.50;;
12320;SDS011;6225;52.720;8.276;2022-08-19T21:44:47;13.43;;;12.23;;
12320;SDS011;6225;52.720;8.276;2022-08-19T21:47:31;13.73;;;12.33;;
12320;SDS011;6225;52.720;8.276;2022-08-19T21:50:16;13.88;;;12.48;;
12320;SDS011;6225;52.720;8.276;2022-08-19T21:53:01;14.13;;;12.50;;
12320;SDS011;6225;52.720;8.276;2022-08-19T21:55:47;15.70;;;13.73;;
12320;SDS011;6225;52.720;8.276;2022-08-19T21:58:31;15.53;;;13.93;;
12320;SDS011;6225;52.720;8.276;2022-08-19T22:01:18;15.63;;;14.07;;
12320;SDS011;6225;52.720;8.276;2022-08-19T22:04:03;16.75;;;14.02;;
12320;SDS011;6225;52.720;8.276;2022-08-19T22:06:48;16.23;;;14.63;;
12320;SDS011;6225;52.720;8.276;2022-08-19T22:09:36;15.95;;;14.35;;
12320;SDS011;6225;52.720;8.276;2022-08-19T22:12:25;17.13;;;15.32;;
12320;SDS011;6225;52.720;8.276;2022-08-19T22:15:12;16.80;;;15.15;;
12320;SDS011;6225;52.720;8.276;2022-08-19T22:18:04;17.13;;;15.33;;
12320;SDS011;6225;52.720;8.276;2022-08-19T22:20:49;16.75;;;15.07;;
12320;SDS011;6225;52.720;8.276;2022-08-19T22:23:34;17.40;;;15.32;;
12320;SDS011;6225;52.720;8.276;2022-08-19T22:26:18;16.45;;;14.95;;
12320;SDS011;6225;52.720;8.276;2022-08-19T22:29:03;16.90;;;15.18;;
12320;SDS011;6225;52.720;8.276;2022-08-19T22:31:47;16.70;;;15.00;;
12320;SDS011;6225;52.720;8.276;2022-08-19T22:34:31;17.35;;;15.68;;
12320;SDS011;6225;52.720;8.276;2022-08-19T22:37:16;18.98;;;15.73;;
12320;SDS011;6225;52.720;8.276;2022-08-19T22:40:00;16.95;;;15.10;;
12320;SDS011;6225;52.720;8.276;2022-08-19T22:42:48;16.45;;;14.75;;
12320;SDS011;6225;52.720;8.276;2022-08-19T22:45:47;18.10;;;15.40;;
12320;SDS011;6225;52.720;8.276;2022-08-19T22:48:32;16.80;;;15.10;;
12320;SDS011;6225;52.720;8.276;2022-08-19T22:51:16;16.63;;;15.03;;
12320;SDS011;6225;52.720;8.276;2022-08-19T22:54:19;17.13;;;15.43;;
12320;SDS011;6225;52.720;8.276;2022-08-19T22:57:03;17.35;;;15.65;;
12320;SDS011;6225;52.720;8.276;2022-08-19T22:59:48;17.10;;;15.32;;
12320;SDS011;6225;52.720;8.276;2022-08-19T23:02:34;18.27;;;16.38;;
12320;SDS011;6225;52.720;8.276;2022-08-19T23:05:24;17.27;;;15.65;;
12320;SDS011;6225;52.720;8.276;2022-08-19T23:08:11;17.45;;;15.85;;
12320;SDS011;6225;52.720;8.276;2022-08-19T23:10:55;18.37;;;16.50;;
12320;SDS011;6225;52.720;8.276;2022-08-19T23:13:40;19.25;;;17.27;;
12320;SDS011;6225;52.720;8.276;2022-08-19T23:16:24;19.10;;;16.83;;
12320;SDS011;6225;52.720;8.276;2022-08-19T23:19:10;19.60;;;17.60;;
12320;SDS011;6225;52.720;8.276;2022-08-19T23:21:55;19.77;;;17.77;;
12320;SDS011;6225;52.720;8.276;2022-08-19T23:24:38;20.17;;;18.00;;
12320;SDS011;6225;52.720;8.276;2022-08-19T23:27:22;20.30;;;18.20;;
12320;SDS011;6225;52.720;8.276;2022-08-19T23:30:26;17.50;;;15.45;;
12320;SDS011;6225;52.720;8.276;2022-08-19T23:33:17;20.63;;;15.88;;
12320;SDS011;6225;52.720;8.276;2022-08-19T23:36:08;17.17;;;15.35;;
12320;SDS011;6225;52.720;8.276;2022-08-19T23:38:56;21.33;;;18.30;;
12320;SDS011;6225;52.720;8.276;2022-08-19T23:41:42;17.67;;;15.75;;
12320;SDS011;6225;52.720;8.276;2022-08-19T23:44:26;16.92;;;15.13;;
12320;SDS011;6225;52.720;8.276;2022-08-19T23:47:11;16.48;;;14.73;;
12320;SDS011;6225;52.720;8.276;2022-08-19T23:49:56;17.95;;;15.77;;
12320;SDS011;6225;52.720;8.276;2022-08-19T23:52:42;16.77;;;15.05;;
12320;SDS011;6225;52.720;8.276;2022-08-19T23:55:34;17.13;;;15.20;;
12320;SDS011;6225;52.720;8.276;2022-08-19T23:58:23;17.52;;;15.07;;
